createdAt,value
2022-11-15T00:01:18.088Z,34.80
2022-11-15T00:06:20.883Z,30.00
2022-11-15T00:11:23.632Z,30.10
2022-11-15T00:16:26.798Z,32.70
2022-11-15T00:21:29.516Z,31.90
2022-11-15T00:26:32.222Z,31.00
2022-11-15T00:31:35.058Z,28.90
2022-11-15T00:36:37.792Z,31.70
2022-11-15T00:41:40.529Z,30.20
2022-11-15T00:46:43.270Z,28.70
2022-11-15T00:51:45.991Z,28.80
2022-11-15T00:56:48.725Z,29.90
2022-11-15T01:01:51.429Z,27.80
2022-11-15T01:06:54.556Z,25.50
2022-11-15T01:11:57.297Z,30.70
2022-11-15T01:17:00.023Z,31.00
2022-11-15T01:22:02.761Z,30.10
2022-11-15T01:27:05.935Z,29.80
2022-11-15T01:32:08.692Z,28.50
2022-11-15T01:37:11.513Z,34.10
2022-11-15T01:42:14.670Z,30.10
2022-11-15T01:52:27.643Z,31.30
2022-11-15T01:57:30.992Z,34.10
2022-11-15T02:02:34.884Z,32.00
2022-11-15T02:07:37.860Z,32.10
2022-11-15T02:12:41.493Z,32.30
2022-11-15T02:17:59.437Z,36.30
2022-11-15T02:23:02.103Z,32.50
2022-11-15T02:28:34.758Z,32.40
2022-11-15T02:34:06.553Z,35.00
2022-11-15T02:39:32.505Z,37.50
2022-11-15T02:44:39.436Z,34.20
2022-11-15T02:49:47.466Z,37.20
2022-11-15T02:54:56.529Z,33.90
2022-11-15T03:00:18.798Z,35.60
2022-11-15T03:05:57.240Z,32.60
2022-11-15T03:11:17.265Z,31.20
2022-11-15T03:16:26.226Z,35.70
2022-11-15T03:21:30.949Z,32.00
2022-11-15T03:26:36.500Z,36.20
2022-11-15T03:31:50.332Z,40.20
2022-11-15T03:36:54.279Z,40.50
2022-11-15T03:42:25.254Z,40.00
2022-11-15T03:47:38.186Z,35.40
2022-11-15T03:52:42.175Z,37.90
2022-11-15T03:57:45.441Z,34.70
2022-11-15T04:07:50.837Z,35.00
2022-11-15T04:12:53.947Z,37.50
2022-11-15T04:17:58.384Z,38.50
2022-11-15T04:23:21.227Z,36.20
2022-11-15T04:28:23.947Z,36.80
2022-11-15T04:33:26.848Z,33.90
2022-11-15T04:38:29.533Z,33.50
2022-11-15T04:43:32.582Z,36.40
2022-11-15T04:48:35.647Z,38.50
2022-11-15T04:53:38.391Z,41.70
2022-11-15T04:58:41.198Z,38.00
2022-11-15T05:04:03.664Z,36.70
2022-11-15T05:09:06.442Z,32.60
2022-11-15T05:14:09.342Z,20.20
2022-11-15T05:19:12.111Z,28.80
2022-11-15T05:24:14.838Z,27.80
2022-11-15T05:29:17.962Z,28.50
2022-11-15T05:34:22.714Z,25.90
2022-11-15T05:39:27.025Z,24.40
2022-11-15T05:44:29.850Z,22.30
2022-11-15T05:49:37.619Z,28.50
2022-11-15T05:54:40.845Z,28.70
2022-11-15T06:04:47.933Z,27.40
2022-11-15T06:09:50.669Z,26.10
2022-11-15T06:14:53.377Z,23.60
2022-11-15T06:19:56.111Z,24.30
2022-11-15T06:25:04.049Z,25.80
2022-11-15T06:30:08.585Z,24.00
2022-11-15T06:40:13.991Z,18.30
2022-11-15T06:45:16.858Z,29.30
2022-11-15T06:50:20.403Z,26.00
2022-11-15T06:55:23.257Z,22.00
2022-11-15T07:00:26.232Z,22.20
2022-11-15T07:05:31.743Z,22.20
2022-11-15T07:10:34.613Z,22.00
2022-11-15T07:15:37.685Z,16.30
2022-11-15T07:20:53.852Z,22.40
2022-11-15T07:26:19.644Z,17.40
2022-11-15T07:31:24.740Z,23.50
2022-11-15T07:36:32.565Z,18.30
2022-11-15T07:41:36.103Z,19.10
2022-11-15T07:46:42.331Z,23.50
2022-11-15T07:51:49.646Z,22.60
2022-11-15T07:57:17.160Z,24.40
2022-11-15T08:02:31.728Z,24.10
2022-11-15T08:07:44.805Z,23.60
2022-11-15T08:13:11.949Z,23.80
2022-11-15T08:18:17.747Z,21.60
2022-11-15T08:28:47.676Z,22.80
2022-11-15T08:34:13.708Z,21.60
2022-11-15T08:50:00.676Z,19.60
2022-11-15T09:00:58.072Z,22.50
2022-11-15T09:06:07.640Z,21.40
2022-11-15T09:11:29.377Z,23.40
2022-11-15T09:16:51.045Z,20.70
2022-11-15T09:22:29.006Z,22.50
2022-11-15T09:27:44.352Z,20.30
2022-11-15T09:33:00.812Z,27.70
2022-11-15T09:38:18.023Z,27.90
2022-11-15T09:43:35.419Z,21.10
2022-11-15T09:48:55.506Z,23.20
2022-11-15T09:59:56.811Z,24.20
2022-11-15T10:05:05.870Z,22.90
2022-11-15T10:10:32.226Z,22.20
2022-11-15T10:15:54.709Z,36.80
2022-11-15T10:27:36.554Z,26.70
2022-11-15T10:32:41.696Z,24.40
2022-11-15T10:37:44.553Z,24.00
2022-11-15T10:42:48.297Z,19.50
2022-11-15T10:47:51.095Z,21.60
2022-11-15T10:52:54.678Z,29.00
2022-11-15T10:58:06.781Z,22.90
2022-11-15T11:03:38.624Z,23.20
2022-11-15T11:08:54.375Z,24.00
2022-11-15T11:14:13.365Z,23.30
2022-11-15T11:19:36.477Z,26.60
2022-11-15T11:24:57.873Z,27.90
2022-11-15T11:30:53.017Z,20.20
2022-11-15T11:36:24.796Z,25.30
2022-11-15T11:41:54.337Z,25.40
2022-11-15T11:47:08.723Z,18.90
2022-11-15T11:52:20.827Z,18.70
2022-11-15T11:57:34.033Z,19.20
2022-11-15T12:02:42.692Z,24.40
2022-11-15T12:07:47.836Z,19.60
2022-11-15T12:12:51.681Z,21.30
2022-11-15T12:18:01.568Z,22.00
2022-11-15T12:23:29.886Z,18.70
2022-11-15T12:29:06.395Z,14.90
2022-11-15T12:34:43.541Z,14.50
2022-11-15T12:40:04.816Z,13.30
2022-11-15T12:45:29.046Z,14.30
2022-11-15T12:50:54.691Z,12.00
2022-11-15T12:56:12.630Z,18.70
2022-11-15T13:01:34.306Z,19.00
2022-11-15T13:06:44.964Z,16.40
2022-11-15T13:11:51.062Z,26.80
2022-11-15T13:17:00.745Z,15.00
2022-11-15T13:22:28.392Z,14.90
2022-11-15T13:27:32.289Z,19.40
2022-11-15T13:32:35.250Z,15.00
2022-11-15T13:37:38.107Z,16.30
2022-11-15T13:42:45.638Z,18.60
2022-11-15T13:47:57.358Z,16.70
2022-11-15T13:53:03.827Z,18.30
2022-11-15T13:58:07.390Z,15.90
2022-11-15T14:03:26.794Z,18.90
2022-11-15T14:08:29.558Z,28.30
2022-11-15T14:13:32.974Z,15.60
2022-11-15T14:18:59.964Z,28.00
2022-11-15T14:24:21.700Z,23.60
2022-11-15T14:29:25.710Z,17.90
2022-11-15T14:34:28.457Z,16.80
2022-11-15T14:39:38.457Z,16.40
2022-11-15T14:44:44.856Z,18.40
2022-11-15T14:49:48.641Z,20.20
2022-11-15T14:54:51.373Z,20.80
2022-11-15T14:59:54.341Z,15.40
2022-11-15T15:04:59.076Z,15.90
2022-11-15T15:10:37.916Z,18.90
2022-11-15T15:15:33.459Z,22.20
2022-11-15T15:20:39.276Z,16.20
2022-11-15T15:25:43.054Z,18.50
2022-11-15T15:30:45.749Z,18.20
2022-11-15T15:35:48.567Z,19.70
2022-11-15T15:40:51.787Z,17.10
2022-11-15T15:45:54.765Z,16.20
2022-11-15T15:50:57.490Z,16.50
2022-11-15T15:56:00.236Z,23.00
2022-11-15T16:01:03.655Z,20.40
2022-11-15T16:06:40.401Z,21.50
2022-11-15T16:11:45.630Z,20.60
2022-11-15T16:16:48.380Z,21.30
2022-11-15T16:21:53.084Z,24.50
2022-11-15T16:26:55.922Z,21.50
2022-11-15T16:31:58.706Z,44.60
2022-11-15T16:37:01.609Z,30.20
2022-11-15T16:42:04.481Z,20.80
2022-11-15T16:47:17.634Z,23.00
2022-11-15T16:52:21.479Z,24.10
2022-11-15T16:57:24.564Z,21.90
2022-11-15T17:02:27.290Z,23.70
2022-11-15T17:07:30.157Z,31.30
2022-11-15T17:12:34.641Z,29.50
2022-11-15T17:17:37.374Z,22.20
2022-11-15T17:22:40.109Z,20.20
2022-11-15T17:27:43.184Z,28.00
2022-11-15T17:32:47.930Z,22.30
2022-11-15T17:37:50.806Z,20.10
2022-11-15T17:42:53.495Z,22.90
2022-11-15T17:47:56.257Z,22.00
2022-11-15T17:52:59.958Z,27.00
2022-11-15T17:58:02.679Z,24.90
2022-11-15T18:03:05.384Z,25.50
2022-11-15T18:08:12.735Z,23.60
2022-11-15T18:13:18.055Z,25.10
2022-11-15T18:18:20.752Z,25.50
2022-11-15T18:23:23.431Z,23.80
2022-11-15T18:28:34.793Z,22.70
2022-11-15T18:33:38.570Z,30.40
2022-11-15T18:38:41.893Z,27.70
2022-11-15T18:43:45.153Z,24.90
2022-11-15T18:53:55.371Z,29.30
2022-11-15T18:59:00.493Z,28.70
2022-11-15T19:04:10.353Z,22.80
2022-11-15T19:09:16.125Z,28.70
2022-11-15T19:14:20.199Z,26.10
2022-11-15T19:19:26.001Z,24.50
2022-11-15T19:24:29.990Z,22.30
2022-11-15T19:29:32.740Z,25.20
2022-11-15T19:34:35.495Z,22.80
2022-11-15T19:39:41.079Z,25.10
2022-11-15T19:44:44.274Z,26.30
2022-11-15T19:49:47.019Z,25.70
2022-11-15T19:54:50.247Z,26.90
2022-11-15T20:04:55.702Z,25.80
2022-11-15T20:09:58.986Z,24.50
2022-11-15T20:15:01.786Z,23.50
2022-11-15T20:20:04.947Z,22.50
2022-11-15T20:25:08.000Z,26.70
2022-11-15T20:30:11.055Z,24.60
2022-11-15T20:35:13.962Z,26.80
2022-11-15T20:40:17.026Z,24.50
2022-11-15T20:45:20.067Z,26.00
2022-11-15T20:50:43.527Z,21.50
2022-11-15T20:55:49.564Z,21.10
2022-11-15T21:00:55.796Z,23.60
2022-11-15T21:05:58.861Z,19.80
2022-11-15T21:11:20.202Z,22.50
2022-11-15T21:16:23.419Z,21.60
2022-11-15T21:26:28.852Z,40.00
2022-11-15T21:31:32.153Z,29.30
2022-11-15T21:41:37.720Z,21.00
2022-11-15T21:46:40.493Z,21.70
2022-11-15T21:51:43.600Z,21.10
2022-11-15T21:56:46.350Z,19.60
2022-11-15T22:02:07.873Z,23.60
2022-11-15T22:07:10.756Z,17.70
2022-11-15T22:12:13.714Z,24.50
2022-11-15T22:17:16.676Z,21.60
2022-11-15T22:22:19.546Z,19.30
2022-11-15T22:27:22.466Z,15.50
2022-11-15T22:32:25.344Z,14.40
2022-11-15T22:37:28.255Z,22.90
2022-11-15T22:42:32.433Z,22.30
2022-11-15T22:47:35.324Z,16.60
2022-11-15T22:52:38.155Z,18.40
2022-11-15T22:57:41.136Z,21.90
2022-11-15T23:02:44.005Z,17.70
2022-11-15T23:07:46.887Z,18.10
2022-11-15T23:13:08.467Z,21.50
2022-11-15T23:18:11.364Z,16.40
2022-11-15T23:23:14.299Z,14.80
2022-11-15T23:28:17.200Z,19.70
2022-11-15T23:33:38.700Z,17.10
2022-11-15T23:38:41.622Z,19.50
2022-11-15T23:43:44.522Z,15.80
2022-11-15T23:48:47.639Z,18.10
2022-11-15T23:53:50.737Z,12.80
2022-11-15T23:58:53.902Z,16.50
